createdAt,value
2019-05-01T00:00:15.809Z,99.90
2019-05-01T00:02:59.817Z,99.90
2019-05-01T00:05:37.606Z,99.90
2019-05-01T00:08:13.376Z,99.90
2019-05-01T00:10:47.738Z,99.90
2019-05-01T00:13:24.631Z,99.90
2019-05-01T00:15:59.059Z,99.90
2019-05-01T00:18:36.705Z,99.90
2019-05-01T00:21:15.279Z,99.90
2019-05-01T00:23:52.542Z,99.90
2019-05-01T00:26:27.402Z,99.90
2019-05-01T00:29:02.026Z,99.90
2019-05-01T00:31:39.855Z,99.90
2019-05-01T00:34:15.437Z,99.90
2019-05-01T00:36:49.336Z,99.90
2019-05-01T00:39:30.129Z,99.90
2019-05-01T00:42:02.399Z,99.90
2019-05-01T00:44:37.003Z,99.90
2019-05-01T00:47:11.512Z,99.90
2019-05-01T00:49:49.178Z,99.90
2019-05-01T00:52:22.894Z,99.90
2019-05-01T00:54:59.144Z,99.90
2019-05-01T00:57:46.652Z,99.90
2019-05-01T01:00:43.307Z,99.90
2019-05-01T01:03:16.807Z,99.90
2019-05-01T01:05:51.640Z,99.90
2019-05-01T01:08:26.117Z,99.90
2019-05-01T01:11:01.604Z,99.90
2019-05-01T01:13:36.281Z,99.90
2019-05-01T01:16:10.481Z,99.90
2019-05-01T01:18:45.522Z,99.90
2019-05-01T01:21:22.932Z,99.90
2019-05-01T01:23:59.413Z,99.90
2019-05-01T01:26:35.621Z,99.90
2019-05-01T01:29:10.291Z,99.90
2019-05-01T01:31:48.437Z,99.90
2019-05-01T01:34:24.469Z,99.60
2019-05-01T01:37:03.963Z,99.90
2019-05-01T01:39:42.972Z,99.20
2019-05-01T01:42:19.075Z,98.90
2019-05-01T01:45:01.337Z,98.40
2019-05-01T01:47:37.226Z,96.40
2019-05-01T01:50:12.723Z,97.30
2019-05-01T01:52:50.156Z,96.60
2019-05-01T01:55:24.621Z,97.40
2019-05-01T01:58:07.469Z,96.30
2019-05-01T02:01:10.336Z,95.60
2019-05-01T02:04:04.233Z,95.20
2019-05-01T02:06:40.003Z,95.30
2019-05-01T02:09:18.756Z,94.90
2019-05-01T02:11:53.293Z,98.20
2019-05-01T02:14:30.687Z,95.00
2019-05-01T02:17:07.577Z,95.50
2019-05-01T02:19:43.439Z,95.20
2019-05-01T02:22:20.250Z,96.40
2019-05-01T02:24:54.902Z,97.30
2019-05-01T02:27:30.535Z,96.70
2019-05-01T02:30:09.130Z,96.70
2019-05-01T02:32:44.344Z,95.30
2019-05-01T02:35:20.621Z,94.50
2019-05-01T02:37:56.631Z,94.90
2019-05-01T02:40:50.306Z,93.60
2019-05-01T02:43:28.342Z,91.60
2019-05-01T02:46:09.107Z,92.40
2019-05-01T02:48:46.752Z,92.30
2019-05-01T02:51:22.381Z,92.20
2019-05-01T02:54:01.994Z,92.50
2019-05-01T02:56:41.041Z,91.90
2019-05-01T02:59:16.569Z,91.80
2019-05-01T03:01:55.506Z,91.20
2019-05-01T03:04:30.746Z,92.20
2019-05-01T03:07:06.497Z,90.10
2019-05-01T03:09:46.315Z,90.00
2019-05-01T03:12:26.808Z,86.80
2019-05-01T03:15:00.142Z,88.80
2019-05-01T03:17:51.302Z,87.30
2019-05-01T03:20:43.609Z,86.20
2019-05-01T03:23:26.421Z,86.00
2019-05-01T03:26:04.224Z,90.10
2019-05-01T03:28:36.985Z,81.90
2019-05-01T03:31:13.091Z,85.60
2019-05-01T03:33:47.650Z,86.00
2019-05-01T03:36:23.821Z,82.60
2019-05-01T03:39:01.462Z,84.30
2019-05-01T03:41:36.177Z,83.60
2019-05-01T03:44:12.032Z,83.60
2019-05-01T03:46:46.620Z,84.00
2019-05-01T03:49:22.237Z,85.60
2019-05-01T03:51:57.206Z,83.60
2019-05-01T03:54:33.185Z,82.80
2019-05-01T03:57:12.711Z,82.40
2019-05-01T03:59:49.242Z,79.20
2019-05-01T04:02:33.483Z,75.60
2019-05-01T04:05:00.924Z,83.90
2019-05-01T04:07:36.503Z,78.00
2019-05-01T04:10:11.386Z,79.10
2019-05-01T04:12:48.839Z,76.70
2019-05-01T04:15:22.852Z,78.20
2019-05-01T04:17:59.879Z,84.20
2019-05-01T04:20:34.101Z,82.30
2019-05-01T04:23:14.525Z,81.60
2019-05-01T04:37:42.835Z,75.40
2019-05-01T04:46:32.256Z,76.40
2019-05-01T04:49:05.878Z,73.70
2019-05-01T04:51:53.249Z,74.00
2019-05-01T04:54:35.745Z,76.80
2019-05-01T04:57:09.110Z,74.00
2019-05-01T05:00:30.915Z,73.20
2019-05-01T05:02:38.225Z,71.60
2019-05-01T05:11:45.339Z,68.50
2019-05-01T05:20:46.283Z,70.60
2019-05-01T05:23:48.135Z,65.60
2019-05-01T05:29:34.222Z,65.60
2019-05-01T05:38:31.240Z,66.10
2019-05-01T05:41:10.093Z,64.50
2019-05-01T05:41:56.228Z,65.80
2019-05-01T05:47:25.419Z,62.30
2019-05-01T05:50:19.674Z,64.00
2019-05-01T05:53:15.313Z,63.30
2019-05-01T05:55:56.879Z,65.40
2019-05-01T06:02:18.114Z,65.40
2019-05-01T06:08:18.928Z,59.40
2019-05-01T06:17:43.937Z,62.60
2019-05-01T06:29:58.009Z,58.20
2019-05-01T06:32:33.451Z,59.80
2019-05-01T06:35:27.782Z,60.00
2019-05-01T06:38:50.258Z,57.90
2019-05-01T06:44:43.911Z,61.30
2019-05-01T06:47:26.006Z,59.90
2019-05-01T06:50:21.969Z,58.70
2019-05-01T06:56:11.241Z,56.80
2019-05-01T07:01:53.123Z,57.10
2019-05-01T07:04:51.212Z,56.30
2019-05-01T07:08:00.046Z,58.10
2019-05-01T07:10:30.757Z,56.30
2019-05-01T07:13:16.414Z,56.20
2019-05-01T07:15:48.404Z,56.80
2019-05-01T07:21:37.226Z,54.00
2019-05-01T07:27:37.960Z,58.30
2019-05-01T07:42:48.134Z,54.40
2019-05-01T07:45:46.227Z,53.40
2019-05-01T07:48:41.747Z,53.70
2019-05-01T07:51:50.072Z,54.30
2019-05-01T07:57:23.156Z,53.30
2019-05-01T08:00:43.298Z,54.80
2019-05-01T08:09:15.114Z,57.60
2019-05-01T08:11:55.231Z,53.20
2019-05-01T08:14:31.298Z,53.80
2019-05-01T08:17:25.863Z,55.20
2019-05-01T08:20:30.272Z,54.70
2019-05-01T08:23:16.144Z,52.40
2019-05-01T08:26:08.663Z,53.80
2019-05-01T08:29:06.902Z,53.20
2019-05-01T08:44:24.794Z,51.70
2019-05-01T08:57:38.987Z,55.30
2019-05-01T08:59:49.621Z,52.10
2019-05-01T09:05:57.472Z,52.70
2019-05-01T09:08:48.471Z,53.70
2019-05-01T09:11:44.497Z,55.30
2019-05-01T09:17:35.499Z,53.90
2019-05-01T09:20:50.183Z,52.80
2019-05-01T09:26:39.400Z,54.90
2019-05-01T09:29:39.079Z,54.00
2019-05-01T09:32:26.027Z,53.40
2019-05-01T09:34:58.714Z,54.10
2019-05-01T09:37:44.344Z,55.80
2019-05-01T09:41:13.088Z,55.20
2019-05-01T09:52:27.184Z,58.20
2019-05-01T09:58:44.026Z,58.60
2019-05-01T10:01:06.375Z,68.10
2019-05-01T10:03:54.525Z,67.80
2019-05-01T10:06:47.615Z,71.30
2019-05-01T10:10:12.082Z,75.90
2019-05-01T10:15:31.151Z,74.70
2019-05-01T10:18:30.622Z,78.90
2019-05-01T10:24:15.229Z,83.80
2019-05-01T10:30:13.346Z,88.30
2019-05-01T13:05:44.810Z,99.90
2019-05-01T13:14:16.508Z,99.90
2019-05-01T13:26:31.104Z,99.90
2019-05-01T13:32:44.444Z,99.90
2019-05-01T13:37:54.747Z,99.90
2019-05-01T13:56:31.269Z,99.90
2019-05-01T13:59:30.879Z,99.90
2019-05-01T14:02:12.549Z,99.90
2019-05-01T14:04:48.022Z,99.90
2019-05-01T14:15:57.605Z,99.90
2019-05-01T14:18:29.720Z,99.90
2019-05-01T14:33:30.914Z,99.90
2019-05-01T14:36:07.049Z,99.90
2019-05-01T14:39:45.637Z,99.90
2019-05-01T14:41:48.033Z,99.90
2019-05-01T14:47:52.748Z,99.90
2019-05-01T14:50:36.102Z,99.90
2019-05-01T14:53:13.511Z,99.90
2019-05-01T14:56:11.669Z,99.90
2019-05-01T15:08:34.654Z,99.90
2019-05-01T15:14:42.939Z,99.90
2019-05-01T15:17:42.662Z,99.90
2019-05-01T15:23:15.282Z,99.90
2019-05-01T15:26:09.783Z,99.90
2019-05-01T15:35:40.547Z,99.90
2019-05-01T15:38:45.131Z,99.90
2019-05-01T15:41:54.249Z,99.90
2019-05-01T15:54:02.527Z,99.90
2019-05-01T15:56:36.333Z,99.90
2019-05-01T16:02:21.741Z,99.90
2019-05-01T16:05:33.343Z,99.90
2019-05-01T16:08:09.145Z,99.90
2019-05-01T16:10:45.324Z,99.90
2019-05-01T16:13:35.539Z,99.90
2019-05-01T16:16:11.541Z,99.90
2019-05-01T16:18:59.493Z,99.90
2019-05-01T16:21:45.719Z,99.90
2019-05-01T16:24:34.473Z,99.90
2019-05-01T16:27:10.010Z,99.90
2019-05-01T16:38:56.989Z,99.90
2019-05-01T16:41:58.773Z,99.90
2019-05-01T16:44:29.117Z,99.90
2019-05-01T16:47:08.680Z,99.90
2019-05-01T16:49:47.745Z,99.90
2019-05-01T16:55:23.046Z,99.90
2019-05-01T16:58:04.562Z,99.90
2019-05-01T17:04:08.792Z,99.90
2019-05-01T17:06:55.119Z,99.90
2019-05-01T17:09:52.303Z,99.90
2019-05-01T17:12:36.586Z,99.90
2019-05-01T17:15:25.188Z,99.90
2019-05-01T17:18:08.071Z,99.90
2019-05-01T17:20:54.790Z,99.90
2019-05-01T17:23:29.917Z,99.90
2019-05-01T17:26:14.985Z,99.90
2019-05-01T17:29:05.451Z,99.90
2019-05-01T17:31:43.585Z,99.90
2019-05-01T17:34:25.480Z,99.90
2019-05-01T17:36:56.525Z,99.90
2019-05-01T17:39:42.506Z,99.90
2019-05-01T17:45:34.696Z,99.90
2019-05-01T17:48:13.551Z,99.90
2019-05-01T17:50:47.139Z,99.90
2019-05-01T17:53:29.747Z,99.90
2019-05-01T17:56:04.385Z,99.90
2019-05-01T17:58:53.513Z,99.90
2019-05-01T18:01:35.811Z,99.90
2019-05-01T18:04:15.432Z,99.90
2019-05-01T18:06:51.310Z,99.90
2019-05-01T18:09:27.611Z,99.90
2019-05-01T18:12:07.677Z,99.90
2019-05-01T18:14:52.793Z,99.90
2019-05-01T18:17:30.254Z,99.90
2019-05-01T18:20:10.157Z,99.90
2019-05-01T18:23:12.470Z,99.90
2019-05-01T18:26:04.711Z,99.90
2019-05-01T18:29:00.867Z,99.90
2019-05-01T18:31:36.286Z,99.90
2019-05-01T18:34:15.088Z,99.90
2019-05-01T18:36:50.039Z,99.90
2019-05-01T18:42:30.561Z,99.90
2019-05-01T18:45:12.428Z,99.90
2019-05-01T18:47:46.236Z,99.90
2019-05-01T18:50:19.119Z,99.90
2019-05-01T18:52:57.203Z,99.90
2019-05-01T18:55:33.443Z,99.90
2019-05-01T18:58:09.971Z,99.90
2019-05-01T19:00:46.162Z,99.90
2019-05-01T19:03:22.324Z,99.90
2019-05-01T19:05:55.886Z,99.90
2019-05-01T19:08:34.658Z,99.90
2019-05-01T19:11:12.711Z,99.90
2019-05-01T19:13:44.004Z,99.90
2019-05-01T19:16:22.134Z,99.90
2019-05-01T19:18:55.763Z,99.90
2019-05-01T19:21:30.055Z,99.90
2019-05-01T19:24:07.360Z,99.90
2019-05-01T19:26:44.142Z,99.90
2019-05-01T19:29:17.625Z,99.90
2019-05-01T19:31:52.993Z,99.90
2019-05-01T19:34:27.167Z,99.90
2019-05-01T19:37:04.896Z,99.90
2019-05-01T19:39:43.933Z,99.90
2019-05-01T19:42:13.618Z,99.90
2019-05-01T19:44:51.070Z,99.90
2019-05-01T19:47:21.725Z,99.90
2019-05-01T19:49:55.407Z,99.90
2019-05-01T19:52:27.455Z,99.90
2019-05-01T19:55:05.882Z,99.90
2019-05-01T19:57:36.164Z,99.90
2019-05-01T20:00:08.233Z,99.90
2019-05-01T20:02:43.180Z,99.90
2019-05-01T20:05:16.610Z,99.90
2019-05-01T20:07:55.647Z,99.90
2019-05-01T20:10:27.481Z,99.90
2019-05-01T20:13:01.295Z,99.90
2019-05-01T20:15:33.490Z,99.90
2019-05-01T20:18:10.638Z,99.90
2019-05-01T20:20:44.337Z,99.90
2019-05-01T20:23:17.831Z,99.90
2019-05-01T20:25:55.744Z,99.90
2019-05-01T20:28:25.992Z,99.90
2019-05-01T20:30:59.387Z,99.90
2019-05-01T20:33:38.110Z,99.90
2019-05-01T20:36:07.970Z,99.90
2019-05-01T20:38:49.138Z,99.90
2019-05-01T20:41:22.564Z,99.90
2019-05-01T20:43:56.075Z,99.90
2019-05-01T20:46:29.491Z,99.90
2019-05-01T20:49:06.495Z,99.90
2019-05-01T20:51:40.225Z,99.90
2019-05-01T20:54:15.720Z,99.90
2019-05-01T20:56:53.176Z,99.90
2019-05-01T20:59:29.474Z,99.90
2019-05-01T21:02:08.020Z,99.90
2019-05-01T21:04:49.534Z,99.90
2019-05-01T21:07:29.332Z,99.90
2019-05-01T21:10:04.925Z,99.90
2019-05-01T21:12:38.579Z,99.90
2019-05-01T21:15:13.996Z,99.90
2019-05-01T21:17:49.314Z,99.90
2019-05-01T21:20:23.872Z,99.90
2019-05-01T21:23:11.659Z,99.90
2019-05-01T21:25:50.186Z,99.90
2019-05-01T21:28:24.123Z,99.90
2019-05-01T21:30:57.655Z,99.90
2019-05-01T21:33:34.265Z,99.90
2019-05-01T21:36:08.489Z,99.90
2019-05-01T21:38:45.405Z,99.90
2019-05-01T21:41:22.372Z,99.90
2019-05-01T21:43:58.539Z,99.90
2019-05-01T21:46:34.585Z,99.90
2019-05-01T21:49:10.402Z,99.90
2019-05-01T21:51:45.993Z,99.90
2019-05-01T21:54:20.665Z,99.90
2019-05-01T21:56:54.784Z,99.90
2019-05-01T21:59:44.041Z,99.90
2019-05-01T22:02:18.546Z,99.90
2019-05-01T22:04:53.183Z,99.90
2019-05-01T22:07:29.168Z,99.90
2019-05-01T22:10:04.885Z,99.90
2019-05-01T22:12:43.983Z,99.90
2019-05-01T22:15:23.195Z,99.90
2019-05-01T22:18:16.549Z,99.90
2019-05-01T22:20:54.314Z,99.90
2019-05-01T22:23:49.146Z,99.90
2019-05-01T22:26:23.655Z,99.90
2019-05-01T22:32:07.803Z,99.90
2019-05-01T22:34:51.848Z,99.90
2019-05-01T22:37:40.432Z,99.90
2019-05-01T22:40:23.004Z,99.90
2019-05-01T22:42:57.794Z,99.90
2019-05-01T22:48:31.205Z,99.90
2019-05-01T22:51:09.019Z,99.90
2019-05-01T22:53:54.250Z,99.90
2019-05-01T22:56:30.996Z,99.90
2019-05-01T22:59:04.598Z,99.90
2019-05-01T23:01:41.722Z,99.90
2019-05-01T23:04:23.302Z,99.90
2019-05-01T23:07:07.602Z,99.90
2019-05-01T23:09:38.045Z,99.90
2019-05-01T23:12:16.608Z,99.90
2019-05-01T23:15:09.304Z,99.90
2019-05-01T23:18:03.223Z,99.90
2019-05-01T23:20:45.423Z,99.90
2019-05-01T23:23:44.306Z,99.90
2019-05-01T23:26:32.517Z,99.90
2019-05-01T23:29:08.732Z,99.90
2019-05-01T23:31:53.465Z,99.90
2019-05-01T23:34:33.809Z,99.90
2019-05-01T23:37:25.805Z,99.90
2019-05-01T23:40:11.005Z,99.90
2019-05-01T23:45:49.210Z,99.90
2019-05-01T23:48:32.865Z,99.90
2019-05-01T23:51:23.679Z,99.90
2019-05-01T23:54:01.228Z,99.90
2019-05-01T23:56:50.828Z,99.90
2019-05-01T23:59:31.227Z,99.90
